sensor_id;sensor_type;location;lat;lon;timestamp;P1;durP1;ratioP1;P2;durP2;ratioP2
3293;SDS011;1659;51.470;6.770;2022-07-25T00:01:55;12.73;;;9.40;;
3293;SDS011;1659;51.470;6.770;2022-07-25T00:04:21;9.47;;;8.47;;
3293;SDS011;1659;51.470;6.770;2022-07-25T00:06:48;9.90;;;8.80;;
3293;SDS011;1659;51.470;6.770;2022-07-25T00:09:14;11.73;;;9.40;;
3293;SDS011;1659;51.470;6.770;2022-07-25T00:11:42;9.63;;;8.63;;
3293;SDS011;1659;51.470;6.770;2022-07-25T00:14:09;9.60;;;8.63;;
3293;SDS011;1659;51.470;6.770;2022-07-25T00:16:36;11.20;;;8.83;;
3293;SDS011;1659;51.470;6.770;2022-07-25T00:19:02;11.47;;;9.53;;
3293;SDS011;1659;51.470;6.770;2022-07-25T00:21:29;13.40;;;8.97;;
3293;SDS011;1659;51.470;6.770;2022-07-25T00:23:56;12.43;;;9.37;;
3293;SDS011;1659;51.470;6.770;2022-07-25T00:26:23;9.63;;;8.43;;
3293;SDS011;1659;51.470;6.770;2022-07-25T00:28:51;11.57;;;9.27;;
3293;SDS011;1659;51.470;6.770;2022-07-25T00:31:17;13.97;;;9.53;;
3293;SDS011;1659;51.470;6.770;2022-07-25T00:33:44;11.03;;;9.27;;
3293;SDS011;1659;51.470;6.770;2022-07-25T00:36:11;11.07;;;8.97;;
3293;SDS011;1659;51.470;6.770;2022-07-25T00:38:37;12.50;;;9.30;;
3293;SDS011;1659;51.470;6.770;2022-07-25T00:41:04;13.10;;;9.50;;
3293;SDS011;1659;51.470;6.770;2022-07-25T00:43:31;11.67;;;9.37;;
3293;SDS011;1659;51.470;6.770;2022-07-25T00:45:59;12.80;;;8.80;;
3293;SDS011;1659;51.470;6.770;2022-07-25T00:48:25;10.97;;;8.97;;
3293;SDS011;1659;51.470;6.770;2022-07-25T00:50:52;12.00;;;9.90;;
3293;SDS011;1659;51.470;6.770;2022-07-25T00:53:19;12.40;;;9.90;;
3293;SDS011;1659;51.470;6.770;2022-07-25T00:55:46;12.43;;;9.60;;
3293;SDS011;1659;51.470;6.770;2022-07-25T00:58:13;10.30;;;8.80;;
3293;SDS011;1659;51.470;6.770;2022-07-25T01:00:40;16.00;;;9.10;;
3293;SDS011;1659;51.470;6.770;2022-07-25T01:03:08;11.40;;;9.00;;
3293;SDS011;1659;51.470;6.770;2022-07-25T01:05:34;17.00;;;9.80;;
3293;SDS011;1659;51.470;6.770;2022-07-25T01:08:01;17.10;;;9.57;;
3293;SDS011;1659;51.470;6.770;2022-07-25T01:10:28;11.80;;;9.90;;
3293;SDS011;1659;51.470;6.770;2022-07-25T01:12:56;11.17;;;9.33;;
3293;SDS011;1659;51.470;6.770;2022-07-25T01:15:23;10.83;;;8.87;;
3293;SDS011;1659;51.470;6.770;2022-07-25T01:17:50;13.00;;;9.30;;
3293;SDS011;1659;51.470;6.770;2022-07-25T01:20:19;12.17;;;10.13;;
3293;SDS011;1659;51.470;6.770;2022-07-25T01:22:46;10.30;;;8.83;;
3293;SDS011;1659;51.470;6.770;2022-07-25T01:25:13;10.87;;;8.73;;
3293;SDS011;1659;51.470;6.770;2022-07-25T01:27:40;11.73;;;8.33;;
3293;SDS011;1659;51.470;6.770;2022-07-25T01:30:09;11.70;;;9.80;;
3293;SDS011;1659;51.470;6.770;2022-07-25T01:32:38;11.67;;;9.50;;
3293;SDS011;1659;51.470;6.770;2022-07-25T01:35:05;10.80;;;8.47;;
3293;SDS011;1659;51.470;6.770;2022-07-25T01:37:34;10.90;;;9.23;;
3293;SDS011;1659;51.470;6.770;2022-07-25T01:40:01;15.23;;;10.70;;
3293;SDS011;1659;51.470;6.770;2022-07-25T01:42:28;14.47;;;8.87;;
3293;SDS011;1659;51.470;6.770;2022-07-25T01:44:55;12.10;;;9.40;;
3293;SDS011;1659;51.470;6.770;2022-07-25T01:47:21;10.43;;;9.23;;
3293;SDS011;1659;51.470;6.770;2022-07-25T01:49:48;12.50;;;8.90;;
3293;SDS011;1659;51.470;6.770;2022-07-25T01:52:15;11.67;;;8.93;;
3293;SDS011;1659;51.470;6.770;2022-07-25T01:54:43;13.90;;;10.63;;
3293;SDS011;1659;51.470;6.770;2022-07-25T01:57:09;13.10;;;9.47;;
3293;SDS011;1659;51.470;6.770;2022-07-25T01:59:36;13.47;;;9.30;;
3293;SDS011;1659;51.470;6.770;2022-07-25T02:02:04;11.87;;;9.83;;
3293;SDS011;1659;51.470;6.770;2022-07-25T02:04:31;10.13;;;8.80;;
3293;SDS011;1659;51.470;6.770;2022-07-25T02:06:59;10.67;;;8.30;;
3293;SDS011;1659;51.470;6.770;2022-07-25T02:09:26;15.03;;;10.30;;
3293;SDS011;1659;51.470;6.770;2022-07-25T02:11:54;10.93;;;9.60;;
3293;SDS011;1659;51.470;6.770;2022-07-25T02:14:21;11.60;;;9.47;;
3293;SDS011;1659;51.470;6.770;2022-07-25T02:16:47;10.67;;;8.30;;
3293;SDS011;1659;51.470;6.770;2022-07-25T02:19:14;11.27;;;9.73;;
3293;SDS011;1659;51.470;6.770;2022-07-25T02:21:41;12.17;;;9.83;;
3293;SDS011;1659;51.470;6.770;2022-07-25T02:24:08;12.37;;;9.43;;
3293;SDS011;1659;51.470;6.770;2022-07-25T02:26:34;12.93;;;10.13;;
3293;SDS011;1659;51.470;6.770;2022-07-25T02:29:03;12.93;;;9.73;;
3293;SDS011;1659;51.470;6.770;2022-07-25T02:31:29;15.93;;;10.40;;
3293;SDS011;1659;51.470;6.770;2022-07-25T02:33:56;11.20;;;9.43;;
3293;SDS011;1659;51.470;6.770;2022-07-25T02:36:22;10.73;;;9.03;;
3293;SDS011;1659;51.470;6.770;2022-07-25T02:38:49;19.40;;;10.10;;
3293;SDS011;1659;51.470;6.770;2022-07-25T02:41:16;12.80;;;9.80;;
3293;SDS011;1659;51.470;6.770;2022-07-25T02:43:42;12.33;;;9.23;;
3293;SDS011;1659;51.470;6.770;2022-07-25T02:46:10;12.40;;;9.83;;
3293;SDS011;1659;51.470;6.770;2022-07-25T02:48:37;15.67;;;10.10;;
3293;SDS011;1659;51.470;6.770;2022-07-25T02:51:03;10.47;;;9.03;;
3293;SDS011;1659;51.470;6.770;2022-07-25T02:53:30;15.63;;;10.53;;
3293;SDS011;1659;51.470;6.770;2022-07-25T02:55:57;18.27;;;9.93;;
3293;SDS011;1659;51.470;6.770;2022-07-25T02:58:23;11.27;;;10.03;;
3293;SDS011;1659;51.470;6.770;2022-07-25T03:00:50;14.33;;;10.43;;
3293;SDS011;1659;51.470;6.770;2022-07-25T03:03:18;18.93;;;9.83;;
3293;SDS011;1659;51.470;6.770;2022-07-25T03:05:44;12.90;;;9.07;;
3293;SDS011;1659;51.470;6.770;2022-07-25T03:08:11;17.80;;;9.97;;
3293;SDS011;1659;51.470;6.770;2022-07-25T03:10:38;15.63;;;10.40;;
3293;SDS011;1659;51.470;6.770;2022-07-25T03:13:05;11.90;;;9.93;;
3293;SDS011;1659;51.470;6.770;2022-07-25T03:15:31;12.53;;;9.90;;
3293;SDS011;1659;51.470;6.770;2022-07-25T03:17:58;13.37;;;9.80;;
3293;SDS011;1659;51.470;6.770;2022-07-25T03:20:26;15.30;;;10.07;;
3293;SDS011;1659;51.470;6.770;2022-07-25T03:22:52;18.47;;;9.60;;
3293;SDS011;1659;51.470;6.770;2022-07-25T03:25:19;17.13;;;10.90;;
3293;SDS011;1659;51.470;6.770;2022-07-25T03:27:46;18.80;;;9.10;;
3293;SDS011;1659;51.470;6.770;2022-07-25T03:30:12;16.13;;;10.40;;
3293;SDS011;1659;51.470;6.770;2022-07-25T03:32:39;12.20;;;9.63;;
3293;SDS011;1659;51.470;6.770;2022-07-25T03:35:06;13.63;;;9.87;;
3293;SDS011;1659;51.470;6.770;2022-07-25T03:37:35;12.63;;;9.90;;
3293;SDS011;1659;51.470;6.770;2022-07-25T03:40:01;13.37;;;9.97;;
3293;SDS011;1659;51.470;6.770;2022-07-25T03:42:28;11.97;;;9.10;;
3293;SDS011;1659;51.470;6.770;2022-07-25T03:44:55;18.67;;;10.30;;
3293;SDS011;1659;51.470;6.770;2022-07-25T03:47:21;13.43;;;10.53;;
3293;SDS011;1659;51.470;6.770;2022-07-25T03:49:48;15.07;;;9.37;;
3293;SDS011;1659;51.470;6.770;2022-07-25T03:52:15;13.37;;;10.90;;
3293;SDS011;1659;51.470;6.770;2022-07-25T03:54:43;16.23;;;10.87;;
3293;SDS011;1659;51.470;6.770;2022-07-25T03:57:09;16.00;;;11.43;;
3293;SDS011;1659;51.470;6.770;2022-07-25T03:59:36;15.37;;;10.40;;
3293;SDS011;1659;51.470;6.770;2022-07-25T04:02:03;13.90;;;9.60;;
3293;SDS011;1659;51.470;6.770;2022-07-25T04:04:30;12.17;;;9.63;;
3293;SDS011;1659;51.470;6.770;2022-07-25T04:06:57;14.23;;;10.50;;
3293;SDS011;1659;51.470;6.770;2022-07-25T04:09:24;13.50;;;9.93;;
3293;SDS011;1659;51.470;6.770;2022-07-25T04:11:52;12.50;;;9.33;;
3293;SDS011;1659;51.470;6.770;2022-07-25T04:14:18;14.83;;;9.60;;
3293;SDS011;1659;51.470;6.770;2022-07-25T04:16:45;12.20;;;9.80;;
3293;SDS011;1659;51.470;6.770;2022-07-25T04:19:11;10.07;;;8.17;;
3293;SDS011;1659;51.470;6.770;2022-07-25T04:21:38;12.23;;;9.60;;
3293;SDS011;1659;51.470;6.770;2022-07-25T04:24:05;17.10;;;9.97;;
3293;SDS011;1659;51.470;6.770;2022-07-25T04:26:32;15.23;;;10.40;;
3293;SDS011;1659;51.470;6.770;2022-07-25T04:29:00;10.90;;;8.60;;
3293;SDS011;1659;51.470;6.770;2022-07-25T04:31:27;12.83;;;9.93;;
3293;SDS011;1659;51.470;6.770;2022-07-25T04:33:54;15.13;;;9.30;;
3293;SDS011;1659;51.470;6.770;2022-07-25T04:36:21;15.60;;;9.97;;
3293;SDS011;1659;51.470;6.770;2022-07-25T04:38:47;11.70;;;9.27;;
3293;SDS011;1659;51.470;6.770;2022-07-25T04:41:14;17.13;;;9.73;;
3293;SDS011;1659;51.470;6.770;2022-07-25T04:43:40;13.60;;;9.40;;
3293;SDS011;1659;51.470;6.770;2022-07-25T04:46:08;12.23;;;9.13;;
3293;SDS011;1659;51.470;6.770;2022-07-25T04:48:35;17.43;;;9.43;;
3293;SDS011;1659;51.470;6.770;2022-07-25T04:51:02;12.10;;;9.80;;
3293;SDS011;1659;51.470;6.770;2022-07-25T04:53:28;13.50;;;8.13;;
3293;SDS011;1659;51.470;6.770;2022-07-25T04:55:55;17.30;;;9.33;;
3293;SDS011;1659;51.470;6.770;2022-07-25T04:58:21;18.73;;;9.23;;
3293;SDS011;1659;51.470;6.770;2022-07-25T05:00:48;12.60;;;9.37;;
3293;SDS011;1659;51.470;6.770;2022-07-25T05:03:17;10.73;;;8.67;;
3293;SDS011;1659;51.470;6.770;2022-07-25T05:05:43;12.33;;;9.57;;
3293;SDS011;1659;51.470;6.770;2022-07-25T05:08:10;18.03;;;9.77;;
3293;SDS011;1659;51.470;6.770;2022-07-25T05:10:36;15.40;;;10.27;;
3293;SDS011;1659;51.470;6.770;2022-07-25T05:13:03;16.40;;;8.27;;
3293;SDS011;1659;51.470;6.770;2022-07-25T05:15:30;21.80;;;9.57;;
3293;SDS011;1659;51.470;6.770;2022-07-25T05:17:56;12.40;;;10.10;;
3293;SDS011;1659;51.470;6.770;2022-07-25T05:20:24;14.07;;;9.57;;
3293;SDS011;1659;51.470;6.770;2022-07-25T05:22:51;17.90;;;9.77;;
3293;SDS011;1659;51.470;6.770;2022-07-25T05:25:18;11.13;;;8.60;;
3293;SDS011;1659;51.470;6.770;2022-07-25T05:27:45;15.40;;;8.77;;
3293;SDS011;1659;51.470;6.770;2022-07-25T05:30:12;14.90;;;9.73;;
3293;SDS011;1659;51.470;6.770;2022-07-25T05:32:40;11.40;;;9.40;;
3293;SDS011;1659;51.470;6.770;2022-07-25T05:35:07;13.07;;;9.63;;
3293;SDS011;1659;51.470;6.770;2022-07-25T05:37:36;12.93;;;10.07;;
3293;SDS011;1659;51.470;6.770;2022-07-25T05:40:03;10.03;;;8.93;;
3293;SDS011;1659;51.470;6.770;2022-07-25T05:42:31;13.80;;;8.73;;
3293;SDS011;1659;51.470;6.770;2022-07-25T05:44:58;13.13;;;9.73;;
3293;SDS011;1659;51.470;6.770;2022-07-25T05:47:25;13.07;;;8.77;;
3293;SDS011;1659;51.470;6.770;2022-07-25T05:49:51;13.03;;;9.07;;
3293;SDS011;1659;51.470;6.770;2022-07-25T05:52:18;15.03;;;9.13;;
3293;SDS011;1659;51.470;6.770;2022-07-25T05:54:46;13.53;;;8.90;;
3293;SDS011;1659;51.470;6.770;2022-07-25T05:57:12;12.63;;;8.70;;
3293;SDS011;1659;51.470;6.770;2022-07-25T05:59:39;15.27;;;8.60;;
3293;SDS011;1659;51.470;6.770;2022-07-25T06:02:06;15.53;;;9.57;;
3293;SDS011;1659;51.470;6.770;2022-07-25T06:04:33;13.90;;;9.20;;
3293;SDS011;1659;51.470;6.770;2022-07-25T06:07:00;16.80;;;10.47;;
3293;SDS011;1659;51.470;6.770;2022-07-25T06:09:26;11.87;;;8.90;;
3293;SDS011;1659;51.470;6.770;2022-07-25T06:11:55;16.33;;;9.93;;
3293;SDS011;1659;51.470;6.770;2022-07-25T06:14:22;14.20;;;9.50;;
3293;SDS011;1659;51.470;6.770;2022-07-25T06:16:49;17.17;;;9.03;;
3293;SDS011;1659;51.470;6.770;2022-07-25T06:19:15;12.93;;;9.30;;
3293;SDS011;1659;51.470;6.770;2022-07-25T06:21:42;12.87;;;9.10;;
3293;SDS011;1659;51.470;6.770;2022-07-25T06:24:08;14.17;;;10.30;;
3293;SDS011;1659;51.470;6.770;2022-07-25T06:26:36;11.73;;;9.50;;
3293;SDS011;1659;51.470;6.770;2022-07-25T06:29:04;12.90;;;9.13;;
3293;SDS011;1659;51.470;6.770;2022-07-25T06:31:30;14.57;;;9.00;;
3293;SDS011;1659;51.470;6.770;2022-07-25T06:33:57;10.37;;;8.43;;
3293;SDS011;1659;51.470;6.770;2022-07-25T06:36:24;13.17;;;9.53;;
3293;SDS011;1659;51.470;6.770;2022-07-25T06:38:50;14.67;;;8.83;;
3293;SDS011;1659;51.470;6.770;2022-07-25T06:41:17;14.23;;;8.37;;
3293;SDS011;1659;51.470;6.770;2022-07-25T06:43:44;14.37;;;9.83;;
3293;SDS011;1659;51.470;6.770;2022-07-25T06:46:12;13.63;;;8.80;;
3293;SDS011;1659;51.470;6.770;2022-07-25T06:48:38;14.57;;;9.03;;
3293;SDS011;1659;51.470;6.770;2022-07-25T06:51:05;13.50;;;8.50;;
3293;SDS011;1659;51.470;6.770;2022-07-25T06:53:32;13.80;;;9.33;;
3293;SDS011;1659;51.470;6.770;2022-07-25T06:55:59;10.10;;;8.47;;
3293;SDS011;1659;51.470;6.770;2022-07-25T06:58:26;10.03;;;8.87;;
3293;SDS011;1659;51.470;6.770;2022-07-25T07:00:52;14.03;;;8.87;;
3293;SDS011;1659;51.470;6.770;2022-07-25T07:03:20;13.43;;;8.57;;
3293;SDS011;1659;51.470;6.770;2022-07-25T07:05:47;10.67;;;8.73;;
3293;SDS011;1659;51.470;6.770;2022-07-25T07:08:14;14.10;;;9.17;;
3293;SDS011;1659;51.470;6.770;2022-07-25T07:10:40;14.70;;;8.80;;
3293;SDS011;1659;51.470;6.770;2022-07-25T07:13:08;12.33;;;9.20;;
3293;SDS011;1659;51.470;6.770;2022-07-25T07:15:36;13.27;;;9.10;;
3293;SDS011;1659;51.470;6.770;2022-07-25T07:18:03;15.00;;;8.60;;
3293;SDS011;1659;51.470;6.770;2022-07-25T07:20:31;12.43;;;9.03;;
3293;SDS011;1659;51.470;6.770;2022-07-25T07:22:58;11.27;;;8.27;;
3293;SDS011;1659;51.470;6.770;2022-07-25T07:25:24;12.87;;;9.40;;
3293;SDS011;1659;51.470;6.770;2022-07-25T07:27:51;18.93;;;9.90;;
3293;SDS011;1659;51.470;6.770;2022-07-25T07:30:18;15.63;;;10.03;;
3293;SDS011;1659;51.470;6.770;2022-07-25T07:32:45;13.60;;;9.50;;
3293;SDS011;1659;51.470;6.770;2022-07-25T07:35:12;10.73;;;9.50;;
3293;SDS011;1659;51.470;6.770;2022-07-25T07:37:42;13.63;;;10.00;;
3293;SDS011;1659;51.470;6.770;2022-07-25T07:40:09;14.03;;;9.70;;
3293;SDS011;1659;51.470;6.770;2022-07-25T07:42:38;17.00;;;9.40;;
3293;SDS011;1659;51.470;6.770;2022-07-25T07:45:09;13.80;;;9.53;;
3293;SDS011;1659;51.470;6.770;2022-07-25T07:47:38;12.37;;;9.30;;
3293;SDS011;1659;51.470;6.770;2022-07-25T07:50:05;11.27;;;9.70;;
3293;SDS011;1659;51.470;6.770;2022-07-25T07:52:32;13.17;;;8.53;;
3293;SDS011;1659;51.470;6.770;2022-07-25T07:55:00;10.33;;;9.23;;
3293;SDS011;1659;51.470;6.770;2022-07-25T07:57:45;12.70;;;9.43;;
3293;SDS011;1659;51.470;6.770;2022-07-25T08:00:12;9.43;;;8.27;;
3293;SDS011;1659;51.470;6.770;2022-07-25T08:02:44;15.00;;;9.90;;
3293;SDS011;1659;51.470;6.770;2022-07-25T08:05:11;12.20;;;9.60;;
3293;SDS011;1659;51.470;6.770;2022-07-25T08:07:39;15.33;;;9.13;;
3293;SDS011;1659;51.470;6.770;2022-07-25T08:10:07;11.40;;;8.50;;
3293;SDS011;1659;51.470;6.770;2022-07-25T08:12:38;9.50;;;8.17;;
3293;SDS011;1659;51.470;6.770;2022-07-25T08:15:05;10.27;;;8.10;;
3293;SDS011;1659;51.470;6.770;2022-07-25T08:17:33;11.20;;;8.53;;
3293;SDS011;1659;51.470;6.770;2022-07-25T08:19:59;11.23;;;7.90;;
3293;SDS011;1659;51.470;6.770;2022-07-25T08:22:34;14.90;;;9.60;;
3293;SDS011;1659;51.470;6.770;2022-07-25T08:25:01;10.23;;;8.20;;
3293;SDS011;1659;51.470;6.770;2022-07-25T08:27:29;10.73;;;8.43;;
3293;SDS011;1659;51.470;6.770;2022-07-25T08:29:55;9.53;;;8.53;;
3293;SDS011;1659;51.470;6.770;2022-07-25T08:32:22;13.03;;;8.97;;
3293;SDS011;1659;51.470;6.770;2022-07-25T08:34:49;10.77;;;8.67;;
3293;SDS011;1659;51.470;6.770;2022-07-25T08:37:16;10.70;;;8.50;;
3293;SDS011;1659;51.470;6.770;2022-07-25T08:39:42;15.40;;;8.63;;
3293;SDS011;1659;51.470;6.770;2022-07-25T08:42:09;12.20;;;8.00;;
3293;SDS011;1659;51.470;6.770;2022-07-25T08:44:37;15.57;;;8.73;;
3293;SDS011;1659;51.470;6.770;2022-07-25T08:47:08;11.90;;;9.03;;
3293;SDS011;1659;51.470;6.770;2022-07-25T08:49:39;13.50;;;9.73;;
3293;SDS011;1659;51.470;6.770;2022-07-25T08:52:07;12.30;;;9.07;;
3293;SDS011;1659;51.470;6.770;2022-07-25T08:54:34;9.13;;;8.17;;
3293;SDS011;1659;51.470;6.770;2022-07-25T08:57:01;9.50;;;8.30;;
3293;SDS011;1659;51.470;6.770;2022-07-25T08:59:29;9.77;;;8.60;;
3293;SDS011;1659;51.470;6.770;2022-07-25T09:01:57;15.80;;;7.57;;
3293;SDS011;1659;51.470;6.770;2022-07-25T09:04:26;13.07;;;8.80;;
3293;SDS011;1659;51.470;6.770;2022-07-25T09:06:53;14.03;;;8.17;;
3293;SDS011;1659;51.470;6.770;2022-07-25T09:09:28;11.73;;;9.33;;
3293;SDS011;1659;51.470;6.770;2022-07-25T09:11:55;12.67;;;8.90;;
3293;SDS011;1659;51.470;6.770;2022-07-25T09:14:23;12.23;;;9.20;;
3293;SDS011;1659;51.470;6.770;2022-07-25T09:16:50;10.17;;;8.10;;
3293;SDS011;1659;51.470;6.770;2022-07-25T09:19:19;14.37;;;9.17;;
3293;SDS011;1659;51.470;6.770;2022-07-25T09:21:56;9.63;;;8.70;;
3293;SDS011;1659;51.470;6.770;2022-07-25T09:24:25;13.60;;;8.50;;
3293;SDS011;1659;51.470;6.770;2022-07-25T09:26:52;9.30;;;8.20;;
3293;SDS011;1659;51.470;6.770;2022-07-25T09:29:21;11.40;;;8.50;;
3293;SDS011;1659;51.470;6.770;2022-07-25T09:31:49;10.53;;;8.20;;
3293;SDS011;1659;51.470;6.770;2022-07-25T09:34:28;10.70;;;7.50;;
3293;SDS011;1659;51.470;6.770;2022-07-25T09:37:03;14.33;;;8.30;;
3293;SDS011;1659;51.470;6.770;2022-07-25T09:39:32;11.07;;;8.40;;
3293;SDS011;1659;51.470;6.770;2022-07-25T09:42:13;8.00;;;7.30;;
3293;SDS011;1659;51.470;6.770;2022-07-25T09:44:41;9.37;;;7.80;;
3293;SDS011;1659;51.470;6.770;2022-07-25T09:47:11;11.43;;;7.90;;
3293;SDS011;1659;51.470;6.770;2022-07-25T09:49:40;8.77;;;6.70;;
3293;SDS011;1659;51.470;6.770;2022-07-25T09:52:08;11.53;;;7.50;;
3293;SDS011;1659;51.470;6.770;2022-07-25T09:54:36;11.77;;;7.90;;
3293;SDS011;1659;51.470;6.770;2022-07-25T09:57:03;7.53;;;6.83;;
3293;SDS011;1659;51.470;6.770;2022-07-25T09:59:31;11.23;;;7.87;;
3293;SDS011;1659;51.470;6.770;2022-07-25T10:01:59;7.83;;;7.03;;
3293;SDS011;1659;51.470;6.770;2022-07-25T10:04:35;7.73;;;6.37;;
3293;SDS011;1659;51.470;6.770;2022-07-25T10:07:11;7.73;;;6.00;;
3293;SDS011;1659;51.470;6.770;2022-07-25T10:09:41;7.70;;;6.03;;
3293;SDS011;1659;51.470;6.770;2022-07-25T10:12:09;8.17;;;6.47;;
3293;SDS011;1659;51.470;6.770;2022-07-25T10:14:37;9.57;;;6.83;;
3293;SDS011;1659;51.470;6.770;2022-07-25T10:17:04;7.53;;;6.30;;
3293;SDS011;1659;51.470;6.770;2022-07-25T10:19:38;6.43;;;5.27;;
3293;SDS011;1659;51.470;6.770;2022-07-25T10:22:09;8.23;;;5.97;;
3293;SDS011;1659;51.470;6.770;2022-07-25T10:24:36;9.47;;;6.50;;
3293;SDS011;1659;51.470;6.770;2022-07-25T10:27:06;6.90;;;5.60;;
3293;SDS011;1659;51.470;6.770;2022-07-25T10:29:35;6.80;;;5.43;;
3293;SDS011;1659;51.470;6.770;2022-07-25T10:32:06;5.70;;;4.87;;
3293;SDS011;1659;51.470;6.770;2022-07-25T10:34:34;5.20;;;4.70;;
3293;SDS011;1659;51.470;6.770;2022-07-25T10:37:10;8.73;;;5.80;;
3293;SDS011;1659;51.470;6.770;2022-07-25T10:39:38;8.37;;;6.13;;
3293;SDS011;1659;51.470;6.770;2022-07-25T10:42:05;6.03;;;4.90;;
3293;SDS011;1659;51.470;6.770;2022-07-25T10:44:41;6.27;;;5.77;;
3293;SDS011;1659;51.470;6.770;2022-07-25T10:47:09;10.17;;;5.33;;
3293;SDS011;1659;51.470;6.770;2022-07-25T10:49:38;5.90;;;4.97;;
3293;SDS011;1659;51.470;6.770;2022-07-25T10:52:06;4.63;;;4.23;;
3293;SDS011;1659;51.470;6.770;2022-07-25T10:54:50;4.83;;;4.40;;
3293;SDS011;1659;51.470;6.770;2022-07-25T10:57:18;7.37;;;4.30;;
3293;SDS011;1659;51.470;6.770;2022-07-25T10:59:45;4.77;;;3.87;;
3293;SDS011;1659;51.470;6.770;2022-07-25T11:02:12;5.47;;;4.70;;
3293;SDS011;1659;51.470;6.770;2022-07-25T11:04:40;6.53;;;4.23;;
3293;SDS011;1659;51.470;6.770;2022-07-25T11:07:08;5.50;;;4.90;;
3293;SDS011;1659;51.470;6.770;2022-07-25T11:09:37;5.50;;;4.30;;
3293;SDS011;1659;51.470;6.770;2022-07-25T11:12:04;8.83;;;4.60;;
3293;SDS011;1659;51.470;6.770;2022-07-25T11:14:32;7.10;;;4.83;;
3293;SDS011;1659;51.470;6.770;2022-07-25T11:17:11;5.63;;;5.13;;
3293;SDS011;1659;51.470;6.770;2022-07-25T11:19:40;8.30;;;5.87;;
3293;SDS011;1659;51.470;6.770;2022-07-25T11:22:08;7.67;;;4.70;;
3293;SDS011;1659;51.470;6.770;2022-07-25T11:24:37;5.70;;;4.53;;
3293;SDS011;1659;51.470;6.770;2022-07-25T11:27:05;4.70;;;4.30;;
3293;SDS011;1659;51.470;6.770;2022-07-25T11:29:33;6.53;;;4.80;;
3293;SDS011;1659;51.470;6.770;2022-07-25T11:32:02;6.43;;;4.43;;
3293;SDS011;1659;51.470;6.770;2022-07-25T11:34:33;5.53;;;4.63;;
3293;SDS011;1659;51.470;6.770;2022-07-25T11:37:03;6.83;;;5.47;;
3293;SDS011;1659;51.470;6.770;2022-07-25T11:39:33;7.63;;;4.30;;
3293;SDS011;1659;51.470;6.770;2022-07-25T11:42:03;4.57;;;3.93;;
3293;SDS011;1659;51.470;6.770;2022-07-25T11:44:32;5.23;;;4.57;;
3293;SDS011;1659;51.470;6.770;2022-07-25T11:47:00;8.07;;;4.67;;
3293;SDS011;1659;51.470;6.770;2022-07-25T11:49:27;4.63;;;4.27;;
3293;SDS011;1659;51.470;6.770;2022-07-25T11:51:53;6.00;;;4.70;;
3293;SDS011;1659;51.470;6.770;2022-07-25T11:54:20;4.13;;;3.73;;
3293;SDS011;1659;51.470;6.770;2022-07-25T11:56:47;6.40;;;4.50;;
3293;SDS011;1659;51.470;6.770;2022-07-25T11:59:15;6.63;;;4.30;;
3293;SDS011;1659;51.470;6.770;2022-07-25T12:01:42;7.90;;;4.60;;
3293;SDS011;1659;51.470;6.770;2022-07-25T12:04:10;6.00;;;4.50;;
3293;SDS011;1659;51.470;6.770;2022-07-25T12:06:38;6.43;;;4.93;;
3293;SDS011;1659;51.470;6.770;2022-07-25T12:09:09;4.20;;;3.77;;
3293;SDS011;1659;51.470;6.770;2022-07-25T12:11:36;4.90;;;4.40;;
3293;SDS011;1659;51.470;6.770;2022-07-25T12:14:03;6.23;;;5.63;;
3293;SDS011;1659;51.470;6.770;2022-07-25T12:16:32;14.10;;;5.30;;
3293;SDS011;1659;51.470;6.770;2022-07-25T12:18:59;6.10;;;4.13;;
3293;SDS011;1659;51.470;6.770;2022-07-25T12:21:26;6.63;;;5.13;;
3293;SDS011;1659;51.470;6.770;2022-07-25T12:23:53;6.23;;;4.80;;
3293;SDS011;1659;51.470;6.770;2022-07-25T12:26:19;10.43;;;4.73;;
3293;SDS011;1659;51.470;6.770;2022-07-25T12:28:46;9.83;;;4.80;;
3293;SDS011;1659;51.470;6.770;2022-07-25T12:31:13;6.03;;;5.03;;
3293;SDS011;1659;51.470;6.770;2022-07-25T12:33:41;6.60;;;4.43;;
3293;SDS011;1659;51.470;6.770;2022-07-25T12:36:10;7.50;;;5.00;;
3293;SDS011;1659;51.470;6.770;2022-07-25T12:38:37;5.87;;;4.90;;
3293;SDS011;1659;51.470;6.770;2022-07-25T12:41:04;8.47;;;5.80;;
3293;SDS011;1659;51.470;6.770;2022-07-25T12:43:31;7.13;;;4.40;;
3293;SDS011;1659;51.470;6.770;2022-07-25T12:45:58;6.43;;;4.30;;
3293;SDS011;1659;51.470;6.770;2022-07-25T12:48:24;6.50;;;4.60;;
3293;SDS011;1659;51.470;6.770;2022-07-25T12:50:52;9.70;;;4.47;;
3293;SDS011;1659;51.470;6.770;2022-07-25T12:53:19;5.07;;;4.57;;
3293;SDS011;1659;51.470;6.770;2022-07-25T12:55:45;6.77;;;6.07;;
3293;SDS011;1659;51.470;6.770;2022-07-25T12:58:12;6.47;;;5.37;;
3293;SDS011;1659;51.470;6.770;2022-07-25T13:00:39;7.70;;;6.90;;
3293;SDS011;1659;51.470;6.770;2022-07-25T13:03:06;8.67;;;6.50;;
3293;SDS011;1659;51.470;6.770;2022-07-25T13:05:32;10.10;;;6.37;;
3293;SDS011;1659;51.470;6.770;2022-07-25T13:08:00;7.73;;;5.90;;
3293;SDS011;1659;51.470;6.770;2022-07-25T13:10:29;6.53;;;5.93;;
3293;SDS011;1659;51.470;6.770;2022-07-25T13:12:56;5.97;;;5.47;;
3293;SDS011;1659;51.470;6.770;2022-07-25T13:15:22;5.77;;;5.17;;
3293;SDS011;1659;51.470;6.770;2022-07-25T13:17:52;6.23;;;5.70;;
3293;SDS011;1659;51.470;6.770;2022-07-25T13:20:19;14.47;;;5.87;;
3293;SDS011;1659;51.470;6.770;2022-07-25T13:22:45;8.73;;;5.80;;
3293;SDS011;1659;51.470;6.770;2022-07-25T13:25:13;5.60;;;5.10;;
3293;SDS011;1659;51.470;6.770;2022-07-25T13:27:40;6.13;;;5.63;;
3293;SDS011;1659;51.470;6.770;2022-07-25T13:30:07;6.40;;;5.90;;
3293;SDS011;1659;51.470;6.770;2022-07-25T13:32:34;10.00;;;5.63;;
3293;SDS011;1659;51.470;6.770;2022-07-25T13:35:01;9.90;;;4.83;;
3293;SDS011;1659;51.470;6.770;2022-07-25T13:37:28;6.80;;;6.10;;
3293;SDS011;1659;51.470;6.770;2022-07-25T13:39:56;6.23;;;4.70;;
3293;SDS011;1659;51.470;6.770;2022-07-25T13:42:24;4.63;;;4.17;;
3293;SDS011;1659;51.470;6.770;2022-07-25T13:44:51;4.60;;;4.07;;
3293;SDS011;1659;51.470;6.770;2022-07-25T13:47:18;7.23;;;4.40;;
3293;SDS011;1659;51.470;6.770;2022-07-25T13:49:44;8.53;;;5.70;;
3293;SDS011;1659;51.470;6.770;2022-07-25T13:52:11;5.00;;;4.50;;
3293;SDS011;1659;51.470;6.770;2022-07-25T13:54:37;5.07;;;4.57;;
3293;SDS011;1659;51.470;6.770;2022-07-25T13:57:04;6.53;;;5.93;;
3293;SDS011;1659;51.470;6.770;2022-07-25T13:59:32;8.73;;;4.50;;
3293;SDS011;1659;51.470;6.770;2022-07-25T14:01:59;7.90;;;5.63;;
3293;SDS011;1659;51.470;6.770;2022-07-25T14:04:25;8.30;;;5.17;;
3293;SDS011;1659;51.470;6.770;2022-07-25T14:06:52;5.67;;;4.00;;
3293;SDS011;1659;51.470;6.770;2022-07-25T14:09:19;6.50;;;4.40;;
3293;SDS011;1659;51.470;6.770;2022-07-25T14:11:46;6.33;;;4.00;;
3293;SDS011;1659;51.470;6.770;2022-07-25T14:14:13;4.40;;;4.00;;
3293;SDS011;1659;51.470;6.770;2022-07-25T14:16:42;4.93;;;3.73;;
3293;SDS011;1659;51.470;6.770;2022-07-25T14:19:08;6.10;;;4.00;;
3293;SDS011;1659;51.470;6.770;2022-07-25T14:21:35;5.27;;;4.37;;
3293;SDS011;1659;51.470;6.770;2022-07-25T14:24:02;4.00;;;3.60;;
3293;SDS011;1659;51.470;6.770;2022-07-25T14:26:29;5.53;;;4.07;;
3293;SDS011;1659;51.470;6.770;2022-07-25T14:28:56;5.30;;;4.30;;
3293;SDS011;1659;51.470;6.770;2022-07-25T14:31:22;3.47;;;3.27;;
3293;SDS011;1659;51.470;6.770;2022-07-25T14:33:50;7.90;;;4.10;;
3293;SDS011;1659;51.470;6.770;2022-07-25T14:36:17;9.90;;;4.60;;
3293;SDS011;1659;51.470;6.770;2022-07-25T14:38:44;5.73;;;5.00;;
3293;SDS011;1659;51.470;6.770;2022-07-25T14:41:12;6.90;;;5.97;;
3293;SDS011;1659;51.470;6.770;2022-07-25T14:43:39;8.20;;;5.23;;
3293;SDS011;1659;51.470;6.770;2022-07-25T14:46:06;9.10;;;5.50;;
3293;SDS011;1659;51.470;6.770;2022-07-25T14:48:34;6.07;;;5.37;;
3293;SDS011;1659;51.470;6.770;2022-07-25T14:51:02;8.23;;;4.60;;
3293;SDS011;1659;51.470;6.770;2022-07-25T14:53:30;6.63;;;4.93;;
3293;SDS011;1659;51.470;6.770;2022-07-25T14:55:57;5.70;;;5.10;;
3293;SDS011;1659;51.470;6.770;2022-07-25T14:58:24;9.03;;;5.10;;
3293;SDS011;1659;51.470;6.770;2022-07-25T15:00:51;12.20;;;5.80;;
3293;SDS011;1659;51.470;6.770;2022-07-25T15:03:18;4.97;;;4.50;;
3293;SDS011;1659;51.470;6.770;2022-07-25T15:05:45;6.63;;;4.80;;
3293;SDS011;1659;51.470;6.770;2022-07-25T15:08:13;4.90;;;4.13;;